createdAt,value
2023-03-01T00:00:03.672Z,1022.62
2023-03-01T00:01:03.627Z,1022.63
2023-03-01T00:02:03.734Z,1022.59
2023-03-01T00:03:03.636Z,1022.59
2023-03-01T00:04:03.594Z,1022.59
2023-03-01T00:05:03.583Z,1022.59
2023-03-01T00:06:03.604Z,1022.57
2023-03-01T00:07:03.565Z,1022.63
2023-03-01T00:08:03.563Z,1022.57
2023-03-01T00:09:03.536Z,1022.58
2023-03-01T00:10:03.540Z,1022.62
2023-03-01T00:11:03.539Z,1022.60
2023-03-01T00:12:03.666Z,1022.61
2023-03-01T00:13:03.494Z,1022.63
2023-03-01T00:14:03.512Z,1022.63
2023-03-01T00:15:03.484Z,1022.68
2023-03-01T00:16:03.467Z,1022.68
2023-03-01T00:17:03.545Z,1022.63
2023-03-01T00:18:03.475Z,1022.65
2023-03-01T00:19:03.445Z,1022.66
2023-03-01T00:20:03.480Z,1022.66
2023-03-01T00:21:03.415Z,1022.69
2023-03-01T00:22:03.426Z,1022.72
2023-03-01T00:23:03.403Z,1022.76
2023-03-01T00:24:03.413Z,1022.80
2023-03-01T00:25:03.373Z,1022.87
2023-03-01T00:26:03.384Z,1022.82
2023-03-01T00:27:03.383Z,1022.79
2023-03-01T00:28:03.343Z,1022.78
2023-03-01T00:29:03.342Z,1022.73
2023-03-01T00:30:03.337Z,1022.78
2023-03-01T00:31:03.321Z,1022.76
2023-03-01T00:32:03.427Z,1022.80
2023-03-01T00:33:03.293Z,1022.80
2023-03-01T00:34:03.388Z,1022.82
2023-03-01T00:35:03.275Z,1022.81
2023-03-01T00:36:03.276Z,1022.80
2023-03-01T00:37:03.254Z,1022.82
2023-03-01T00:38:03.277Z,1022.82
2023-03-01T00:39:03.229Z,1022.76
2023-03-01T00:40:03.262Z,1022.81
2023-03-01T00:41:03.217Z,1022.77
2023-03-01T00:42:03.224Z,1022.78
2023-03-01T00:43:03.242Z,1022.75
2023-03-01T00:44:03.214Z,1022.75
2023-03-01T00:45:03.170Z,1022.74
2023-03-01T00:46:03.203Z,1022.74
2023-03-01T00:47:03.167Z,1022.74
2023-03-01T00:48:03.193Z,1022.70
2023-03-01T00:49:03.238Z,1022.72
2023-03-01T00:50:03.528Z,1022.71
2023-03-01T00:51:03.109Z,1022.70
2023-03-01T00:52:03.198Z,1022.73
2023-03-01T00:53:03.088Z,1022.74
2023-03-01T00:54:03.115Z,1022.74
2023-03-01T00:55:03.068Z,1022.75
2023-03-01T00:56:03.067Z,1022.75
2023-03-01T00:57:03.063Z,1022.73
2023-03-01T00:58:03.038Z,1022.68
2023-03-01T00:59:03.050Z,1022.68
2023-03-01T01:00:03.045Z,1022.68
2023-03-01T01:01:02.999Z,1022.68
2023-03-01T01:02:02.996Z,1022.66
2023-03-01T01:03:03.004Z,1022.65
2023-03-01T01:04:03.220Z,1022.63
2023-03-01T01:05:02.957Z,1022.65
2023-03-01T01:06:02.967Z,1022.66
2023-03-01T01:07:02.956Z,1022.66
2023-03-01T01:08:02.939Z,1022.63
2023-03-01T01:09:02.937Z,1022.63
2023-03-01T01:10:02.916Z,1022.60
2023-03-01T01:11:02.898Z,1022.59
2023-03-01T01:12:02.917Z,1022.63
2023-03-01T01:13:02.886Z,1022.62
2023-03-01T01:14:02.866Z,1022.63
2023-03-01T01:15:02.864Z,1022.58
2023-03-01T01:16:04.288Z,1022.59
2023-03-01T01:17:02.828Z,1022.57
2023-03-01T01:18:02.890Z,1022.61
2023-03-01T01:19:02.806Z,1022.57
2023-03-01T01:20:02.817Z,1022.56
2023-03-01T01:21:02.786Z,1022.55
2023-03-01T01:22:02.804Z,1022.55
2023-03-01T01:23:02.777Z,1022.55
2023-03-01T01:24:02.757Z,1022.49
2023-03-01T01:25:02.746Z,1022.50
2023-03-01T01:26:02.810Z,1022.47
2023-03-01T01:27:02.728Z,1022.48
2023-03-01T01:28:02.762Z,1022.41
2023-03-01T01:29:02.728Z,1022.48
2023-03-01T01:30:02.766Z,1022.41
2023-03-01T01:31:02.750Z,1022.41
2023-03-01T01:32:02.776Z,1022.36
2023-03-01T01:33:02.686Z,1022.35
2023-03-01T01:34:02.686Z,1022.33
2023-03-01T01:35:02.655Z,1022.31
2023-03-01T01:36:02.687Z,1022.27
2023-03-01T01:37:02.635Z,1022.16
2023-03-01T01:38:03.046Z,1022.20
2023-03-01T01:39:02.596Z,1022.16
2023-03-01T01:40:02.609Z,1022.16
2023-03-01T01:41:02.575Z,1022.17
2023-03-01T01:42:02.598Z,1022.19
2023-03-01T01:43:02.573Z,1022.18
2023-03-01T01:44:02.562Z,1022.18
2023-03-01T01:45:02.543Z,1022.17
2023-03-01T01:46:02.598Z,1022.20
2023-03-01T01:47:02.522Z,1022.16
2023-03-01T01:48:02.528Z,1022.17
2023-03-01T01:49:02.542Z,1022.16
2023-03-01T01:50:03.113Z,1022.18
2023-03-01T01:51:02.540Z,1022.17
2023-03-01T01:52:02.482Z,1022.16
2023-03-01T01:53:02.492Z,1022.13
2023-03-01T01:54:02.562Z,1022.15
2023-03-01T01:55:02.424Z,1022.16
2023-03-01T01:56:02.446Z,1022.12
2023-03-01T01:57:02.415Z,1022.13
2023-03-01T01:58:02.448Z,1022.09
2023-03-01T01:59:02.395Z,1022.04
2023-03-01T02:00:02.389Z,1022.08
2023-03-01T02:01:02.362Z,1022.10
2023-03-01T02:02:02.793Z,1022.18
2023-03-01T02:03:02.407Z,1022.19
2023-03-01T02:04:02.377Z,1022.21
2023-03-01T02:05:02.344Z,1022.21
2023-03-01T02:06:02.392Z,1022.21
2023-03-01T02:07:02.310Z,1022.16
2023-03-01T02:08:02.367Z,1022.14
2023-03-01T02:09:02.286Z,1022.17
2023-03-01T02:10:02.307Z,1022.18
2023-03-01T02:11:02.264Z,1022.17
2023-03-01T02:12:02.276Z,1022.15
2023-03-01T02:13:02.251Z,1022.13
2023-03-01T02:14:02.257Z,1022.11
2023-03-01T02:15:02.250Z,1022.08
2023-03-01T02:16:02.288Z,1022.11
2023-03-01T02:17:02.205Z,1022.12
2023-03-01T02:18:02.263Z,1022.14
2023-03-01T02:19:02.184Z,1022.11
2023-03-01T02:20:02.273Z,1022.10
2023-03-01T02:21:02.164Z,1022.06
2023-03-01T02:22:02.417Z,1022.12
2023-03-01T02:23:02.164Z,1022.14
2023-03-01T02:24:02.134Z,1022.10
2023-03-01T02:25:02.125Z,1022.12
2023-03-01T02:26:02.129Z,1022.12
2023-03-01T02:27:02.107Z,1022.06
2023-03-01T02:28:02.101Z,1022.09
2023-03-01T02:29:02.095Z,1022.07
2023-03-01T02:30:02.133Z,1022.02
2023-03-01T02:31:02.074Z,1022.04
2023-03-01T02:32:02.076Z,1022.03
2023-03-01T02:33:02.090Z,1022.01
2023-03-01T02:34:02.044Z,1022.00
2023-03-01T02:35:02.023Z,1021.93
2023-03-01T02:36:02.077Z,1021.93
2023-03-01T02:37:01.998Z,1021.88
2023-03-01T02:38:02.017Z,1021.86
2023-03-01T02:39:01.985Z,1021.85
2023-03-01T02:40:01.987Z,1021.84
2023-03-01T02:41:02.006Z,1021.87
2023-03-01T02:42:01.944Z,1021.87
2023-03-01T02:43:01.936Z,1021.85
2023-03-01T02:44:01.932Z,1021.85
2023-03-01T02:45:01.965Z,1021.86
2023-03-01T02:46:01.931Z,1021.86
2023-03-01T02:47:02.050Z,1021.86
2023-03-01T02:48:02.054Z,1021.84
2023-03-01T02:49:01.873Z,1021.85
2023-03-01T02:50:01.864Z,1021.81
2023-03-01T02:51:01.846Z,1021.82
2023-03-01T02:52:01.889Z,1021.85
2023-03-01T02:53:01.843Z,1021.87
2023-03-01T02:54:01.828Z,1021.85
2023-03-01T02:55:01.808Z,1021.88
2023-03-01T02:56:01.805Z,1021.88
2023-03-01T02:57:02.021Z,1021.87
2023-03-01T02:58:01.784Z,1021.87
2023-03-01T02:59:01.892Z,1021.83
2023-03-01T03:00:01.762Z,1021.83
2023-03-01T03:01:01.894Z,1021.81
2023-03-01T03:02:01.744Z,1021.81
2023-03-01T03:03:02.135Z,1021.81
2023-03-01T03:04:01.786Z,1021.85
2023-03-01T03:05:01.716Z,1021.80
2023-03-01T03:06:01.708Z,1021.75
2023-03-01T03:07:01.686Z,1021.78
2023-03-01T03:08:01.768Z,1021.77
2023-03-01T03:09:01.671Z,1021.74
2023-03-01T03:10:01.652Z,1021.73
2023-03-01T03:11:01.693Z,1021.79
2023-03-01T03:12:01.634Z,1021.78
2023-03-01T03:13:01.626Z,1021.76
2023-03-01T03:14:01.616Z,1021.79
2023-03-01T03:15:01.593Z,1021.75
2023-03-01T03:16:01.617Z,1021.74
2023-03-01T03:17:01.575Z,1021.73
2023-03-01T03:18:01.583Z,1021.68
2023-03-01T03:19:01.563Z,1021.67
2023-03-01T03:20:01.544Z,1021.67
2023-03-01T03:21:01.532Z,1021.69
2023-03-01T03:22:01.538Z,1021.66
2023-03-01T03:23:01.553Z,1021.74
2023-03-01T03:24:01.511Z,1021.70
2023-03-01T03:25:01.509Z,1021.66
2023-03-01T03:26:01.486Z,1021.63
2023-03-01T03:27:01.461Z,1021.68
2023-03-01T03:28:01.472Z,1021.68
2023-03-01T03:29:01.462Z,1021.62
2023-03-01T03:30:01.444Z,1021.59
2023-03-01T03:31:01.421Z,1021.55
2023-03-01T03:32:01.494Z,1021.51
2023-03-01T03:33:01.434Z,1021.49
2023-03-01T03:34:01.390Z,1021.51
2023-03-01T03:35:01.393Z,1021.52
2023-03-01T03:36:01.431Z,1021.54
2023-03-01T03:37:01.371Z,1021.47
2023-03-01T03:38:01.371Z,1021.54
2023-03-01T03:39:01.349Z,1021.51
2023-03-01T03:40:01.339Z,1021.52
2023-03-01T03:41:01.322Z,1021.51
2023-03-01T03:42:01.312Z,1021.50
2023-03-01T03:43:01.317Z,1021.51
2023-03-01T03:44:01.289Z,1021.50
2023-03-01T03:45:01.314Z,1021.55
2023-03-01T03:46:01.366Z,1021.54
2023-03-01T03:47:01.273Z,1021.58
2023-03-01T03:48:01.253Z,1021.54
2023-03-01T03:49:01.241Z,1021.53
2023-03-01T03:50:01.226Z,1021.51
2023-03-01T03:51:01.224Z,1021.52
2023-03-01T03:52:01.203Z,1021.48
2023-03-01T03:53:01.211Z,1021.52
2023-03-01T03:54:01.254Z,1021.49
2023-03-01T03:55:01.182Z,1021.49
2023-03-01T03:56:01.161Z,1021.46
2023-03-01T03:57:01.178Z,1021.51
2023-03-01T03:58:01.150Z,1021.56
2023-03-01T03:59:01.159Z,1021.57
2023-03-01T04:00:01.122Z,1021.56
2023-03-01T04:01:01.113Z,1021.57
2023-03-01T04:02:01.101Z,1021.53
2023-03-01T04:03:01.204Z,1021.53
2023-03-01T04:04:01.090Z,1021.54
2023-03-01T04:05:01.072Z,1021.47
2023-03-01T04:06:01.076Z,1021.44
2023-03-01T04:07:01.051Z,1021.45
2023-03-01T04:08:01.057Z,1021.36
2023-03-01T04:09:01.071Z,1021.35
2023-03-01T04:10:01.021Z,1021.33
2023-03-01T04:11:01.015Z,1021.30
2023-03-01T04:12:01.005Z,1021.23
2023-03-01T04:13:01.001Z,1021.21
2023-03-01T04:14:00.982Z,1021.21
2023-03-01T04:15:00.973Z,1021.18
2023-03-01T04:16:00.951Z,1021.17
2023-03-01T04:17:00.950Z,1021.18
2023-03-01T04:18:00.965Z,1021.20
2023-03-01T04:19:01.009Z,1021.25
2023-03-01T04:20:00.918Z,1021.26
2023-03-01T04:21:00.912Z,1021.27
2023-03-01T04:22:00.890Z,1021.29
2023-03-01T04:23:00.911Z,1021.29
2023-03-01T04:24:00.897Z,1021.32
2023-03-01T04:25:00.864Z,1021.26
2023-03-01T04:26:00.861Z,1021.26
2023-03-01T04:27:00.849Z,1021.28
2023-03-01T04:28:00.840Z,1021.36
2023-03-01T04:29:00.833Z,1021.35
2023-03-01T04:30:00.821Z,1021.38
2023-03-01T04:31:00.801Z,1021.37
2023-03-01T04:32:00.922Z,1021.40
2023-03-01T04:33:00.792Z,1021.34
2023-03-01T04:34:00.770Z,1021.34
2023-03-01T04:35:00.766Z,1021.31
2023-03-01T04:36:00.845Z,1021.32
2023-03-01T04:37:00.741Z,1021.32
2023-03-01T04:38:00.744Z,1021.28
2023-03-01T04:39:00.725Z,1021.33
2023-03-01T04:40:00.710Z,1021.31
2023-03-01T04:41:00.708Z,1021.30
2023-03-01T04:42:00.699Z,1021.31
2023-03-01T04:43:00.690Z,1021.35
2023-03-01T04:44:00.678Z,1021.31
2023-03-01T04:45:00.661Z,1021.30
2023-03-01T04:46:00.676Z,1021.29
2023-03-01T04:47:00.650Z,1021.28
2023-03-01T04:48:00.641Z,1021.29
2023-03-01T04:49:00.610Z,1021.28
2023-03-01T04:50:00.601Z,1021.25
2023-03-01T04:51:00.598Z,1021.25
2023-03-01T04:52:00.582Z,1021.24
2023-03-01T04:53:00.587Z,1021.21
2023-03-01T04:54:00.579Z,1021.21
2023-03-01T04:55:00.554Z,1021.17
2023-03-01T04:56:00.544Z,1021.18
2023-03-01T04:57:00.541Z,1021.19
2023-03-01T04:58:00.529Z,1021.17
2023-03-01T04:59:00.520Z,1021.17
2023-03-01T05:00:00.523Z,1021.16
2023-03-01T05:01:00.491Z,1021.12
2023-03-01T05:02:00.501Z,1021.11
2023-03-01T05:03:00.629Z,1021.12
2023-03-01T05:04:00.463Z,1021.13
2023-03-01T05:05:00.450Z,1021.19
2023-03-01T05:06:00.445Z,1021.19
2023-03-01T05:07:00.474Z,1021.24
2023-03-01T05:08:00.414Z,1021.24
2023-03-01T05:09:00.422Z,1021.25
2023-03-01T05:10:00.388Z,1021.25
2023-03-01T05:11:00.389Z,1021.23
2023-03-01T05:12:00.380Z,1021.22
2023-03-01T05:13:00.358Z,1021.24
2023-03-01T05:14:00.378Z,1021.27
2023-03-01T05:15:00.360Z,1021.27
2023-03-01T05:16:00.385Z,1021.25
2023-03-01T05:17:00.352Z,1021.22
2023-03-01T05:18:00.343Z,1021.23
2023-03-01T05:19:00.311Z,1021.22
2023-03-01T05:20:00.401Z,1021.25
2023-03-01T05:21:00.285Z,1021.26
2023-03-01T05:22:00.275Z,1021.31
2023-03-01T05:23:00.296Z,1021.33
2023-03-01T05:24:00.249Z,1021.30
2023-03-01T05:25:00.253Z,1021.30
2023-03-01T05:26:00.229Z,1021.30
2023-03-01T05:27:00.217Z,1021.28
2023-03-01T05:28:00.218Z,1021.27
2023-03-01T05:29:00.860Z,1021.30
2023-03-01T05:30:00.187Z,1021.27
2023-03-01T05:31:00.196Z,1021.26
2023-03-01T05:32:00.220Z,1021.24
2023-03-01T05:33:00.158Z,1021.25
2023-03-01T05:34:00.164Z,1021.24
2023-03-01T05:35:00.174Z,1021.25
2023-03-01T05:36:00.264Z,1021.22
2023-03-01T05:37:00.120Z,1021.26
2023-03-01T05:38:00.101Z,1021.25
2023-03-01T05:39:00.130Z,1021.24
2023-03-01T05:40:00.123Z,1021.22
2023-03-01T05:41:00.084Z,1021.22
2023-03-01T05:42:00.097Z,1021.23
2023-03-01T05:43:00.061Z,1021.25
2023-03-01T05:44:00.069Z,1021.28
2023-03-01T05:45:00.047Z,1021.30
2023-03-01T05:46:00.036Z,1021.24
2023-03-01T05:47:00.018Z,1021.28
2023-03-01T05:48:00.017Z,1021.31
2023-03-01T05:49:00.007Z,1021.32
2023-03-01T05:50:00.155Z,1021.30
2023-03-01T05:50:59.976Z,1021.30
2023-03-01T05:51:59.956Z,1021.32
2023-03-01T05:52:59.957Z,1021.30
2023-03-01T05:53:59.983Z,1021.32
2023-03-01T05:54:59.918Z,1021.40
2023-03-01T05:55:59.919Z,1021.34
2023-03-01T05:56:59.908Z,1021.40
2023-03-01T05:57:59.889Z,1021.38
2023-03-01T05:58:59.956Z,1021.35
2023-03-01T05:59:59.879Z,1021.36
2023-03-01T06:00:59.866Z,1021.33
2023-03-01T06:01:59.862Z,1021.37
2023-03-01T06:02:59.890Z,1021.32
2023-03-01T06:03:59.841Z,1021.35
2023-03-01T06:04:59.933Z,1021.30
2023-03-01T06:05:59.816Z,1021.32
2023-03-01T06:06:59.800Z,1021.30
2023-03-01T06:07:59.800Z,1021.29
2023-03-01T06:08:59.793Z,1021.29
2023-03-01T06:09:59.782Z,1021.25
2023-03-01T06:10:59.761Z,1021.24
2023-03-01T06:11:59.762Z,1021.19
2023-03-01T06:12:59.763Z,1021.18
2023-03-01T06:13:59.750Z,1021.17
2023-03-01T06:14:59.724Z,1021.16
2023-03-01T06:15:59.875Z,1021.16
2023-03-01T06:16:59.740Z,1021.14
2023-03-01T06:18:00.201Z,1021.12
2023-03-01T06:18:59.679Z,1021.12
2023-03-01T06:19:59.670Z,1021.14
2023-03-01T06:20:59.651Z,1021.11
2023-03-01T06:21:59.663Z,1021.12
2023-03-01T06:22:59.790Z,1021.13
2023-03-01T06:23:59.690Z,1021.16
2023-03-01T06:24:59.626Z,1021.16
2023-03-01T06:25:59.659Z,1021.22
2023-03-01T06:26:59.593Z,1021.19
2023-03-01T06:27:59.599Z,1021.18
2023-03-01T06:28:59.580Z,1021.14
2023-03-01T06:29:59.574Z,1021.19
2023-03-01T06:30:59.570Z,1021.17
2023-03-01T06:31:59.566Z,1021.15
2023-03-01T06:32:59.541Z,1021.14
2023-03-01T06:33:59.586Z,1021.11
2023-03-01T06:34:59.514Z,1021.11
2023-03-01T06:35:59.502Z,1021.08
2023-03-01T06:36:59.493Z,1021.14
2023-03-01T06:37:59.500Z,1021.15
2023-03-01T06:38:59.470Z,1021.13
2023-03-01T06:39:59.469Z,1021.17
2023-03-01T06:40:59.451Z,1021.17
2023-03-01T06:41:59.461Z,1021.16
2023-03-01T06:42:59.542Z,1021.15
2023-03-01T06:43:59.457Z,1021.18
2023-03-01T06:44:59.410Z,1021.20
2023-03-01T06:45:59.405Z,1021.15
2023-03-01T06:46:59.458Z,1021.15
2023-03-01T06:47:59.412Z,1021.18
2023-03-01T06:48:59.411Z,1021.17
2023-03-01T06:49:59.382Z,1021.15
2023-03-01T06:50:59.349Z,1021.15
2023-03-01T06:51:59.342Z,1021.16
2023-03-01T06:52:59.350Z,1021.16
2023-03-01T06:54:01.569Z,1021.16
2023-03-01T06:54:59.299Z,1021.17
2023-03-01T06:55:59.297Z,1021.20
2023-03-01T06:56:59.377Z,1021.21
2023-03-01T06:57:59.281Z,1021.22
2023-03-01T06:58:59.258Z,1021.26
2023-03-01T06:59:59.316Z,1021.29
2023-03-01T07:00:59.236Z,1021.33
2023-03-01T07:01:59.264Z,1021.31
2023-03-01T07:02:59.244Z,1021.30
2023-03-01T07:03:59.209Z,1021.28
2023-03-01T07:04:59.233Z,1021.29
2023-03-01T07:05:59.184Z,1021.31
2023-03-01T07:06:59.165Z,1021.28
2023-03-01T07:07:59.188Z,1021.23
2023-03-01T07:08:59.157Z,1021.28
2023-03-01T07:09:59.153Z,1021.21
2023-03-01T07:10:59.142Z,1021.15
2023-03-01T07:11:59.139Z,1021.12
2023-03-01T07:12:59.146Z,1021.11
2023-03-01T07:13:59.104Z,1021.14
2023-03-01T07:14:59.089Z,1021.17
2023-03-01T07:15:59.103Z,1021.15
2023-03-01T07:16:59.067Z,1021.11
2023-03-01T07:17:59.101Z,1021.08
2023-03-01T07:18:59.841Z,1021.04
2023-03-01T07:19:59.052Z,1021.06
2023-03-01T07:20:59.067Z,1021.01
2023-03-01T07:21:59.024Z,1021.00
2023-03-01T07:22:59.015Z,1020.99
2023-03-01T07:23:58.995Z,1020.96
2023-03-01T07:24:58.986Z,1020.95
2023-03-01T07:25:58.991Z,1020.98
2023-03-01T07:26:58.966Z,1021.01
2023-03-01T07:27:58.974Z,1021.01
2023-03-01T07:28:58.945Z,1020.98
2023-03-01T07:29:58.944Z,1020.97
2023-03-01T07:30:58.914Z,1020.96
2023-03-01T07:31:59.023Z,1020.95
2023-03-01T07:32:59.091Z,1020.96
2023-03-01T07:33:58.899Z,1020.97
2023-03-01T07:34:58.875Z,1020.95
2023-03-01T07:35:58.996Z,1020.95
2023-03-01T07:36:58.865Z,1020.97
2023-03-01T07:37:58.873Z,1020.93
2023-03-01T07:38:58.858Z,1020.86
2023-03-01T07:39:58.828Z,1020.84
2023-03-01T07:40:58.834Z,1020.86
2023-03-01T07:41:58.819Z,1020.83
2023-03-01T07:42:58.813Z,1020.84
2023-03-01T07:43:58.791Z,1020.77
2023-03-01T07:44:58.781Z,1020.77
2023-03-01T07:45:58.843Z,1020.81
2023-03-01T07:46:58.756Z,1020.77
2023-03-01T07:47:59.115Z,1020.80
2023-03-01T07:48:58.734Z,1020.80
2023-03-01T07:49:58.731Z,1020.79
2023-03-01T07:50:58.721Z,1020.79
2023-03-01T07:51:58.705Z,1020.80
2023-03-01T07:52:58.702Z,1020.78
2023-03-01T07:53:58.682Z,1020.82
2023-03-01T07:54:58.681Z,1020.79
2023-03-01T07:55:58.664Z,1020.84
2023-03-01T07:56:58.654Z,1020.79
2023-03-01T07:57:58.644Z,1020.75
2023-03-01T07:58:58.646Z,1020.80
2023-03-01T07:59:58.622Z,1020.77
2023-03-01T08:00:58.612Z,1020.78
2023-03-01T08:01:58.638Z,1020.71
2023-03-01T08:02:58.607Z,1020.74
2023-03-01T08:03:58.568Z,1020.76
2023-03-01T08:04:58.585Z,1020.74
2023-03-01T08:05:58.544Z,1020.75
2023-03-01T08:06:58.564Z,1020.76
2023-03-01T08:07:58.542Z,1020.74
2023-03-01T08:08:58.529Z,1020.72
2023-03-01T08:09:58.521Z,1020.71
2023-03-01T08:10:58.502Z,1020.69
2023-03-01T08:11:58.498Z,1020.73
2023-03-01T08:12:58.513Z,1020.76
2023-03-01T08:13:58.469Z,1020.80
2023-03-01T08:14:58.475Z,1020.79
2023-03-01T08:15:58.456Z,1020.83
2023-03-01T08:16:58.482Z,1020.83
2023-03-01T08:17:58.435Z,1020.86
2023-03-01T08:18:58.420Z,1020.85
2023-03-01T08:19:58.408Z,1020.83
2023-03-01T08:20:58.402Z,1020.83
2023-03-01T08:21:58.377Z,1020.84
2023-03-01T08:22:58.396Z,1020.83
2023-03-01T08:23:58.361Z,1020.77
2023-03-01T08:24:58.362Z,1020.76
2023-03-01T08:25:58.339Z,1020.75
2023-03-01T08:26:58.340Z,1020.75
2023-03-01T08:27:58.311Z,1020.74
2023-03-01T08:28:58.322Z,1020.79
2023-03-01T08:29:58.309Z,1020.76
2023-03-01T08:30:58.307Z,1020.79
2023-03-01T08:31:58.359Z,1020.79
2023-03-01T08:32:58.407Z,1020.75
2023-03-01T08:33:58.262Z,1020.73
2023-03-01T08:34:58.242Z,1020.72
2023-03-01T08:35:58.256Z,1020.72
2023-03-01T08:36:58.218Z,1020.70
2023-03-01T08:37:58.204Z,1020.69
2023-03-01T08:38:58.233Z,1020.70
2023-03-01T08:39:58.208Z,1020.74
2023-03-01T08:40:58.181Z,1020.70
2023-03-01T08:41:58.163Z,1020.73
2023-03-01T08:42:58.156Z,1020.72
2023-03-01T08:43:58.180Z,1020.75
2023-03-01T08:44:58.133Z,1020.75
2023-03-01T08:45:58.152Z,1020.76
2023-03-01T08:46:58.150Z,1020.80
2023-03-01T08:47:58.103Z,1020.83
2023-03-01T08:48:58.100Z,1020.84
2023-03-01T08:49:58.084Z,1020.81
2023-03-01T08:50:58.121Z,1020.77
2023-03-01T08:51:58.080Z,1020.80
2023-03-01T08:52:58.042Z,1020.79
2023-03-01T08:53:58.071Z,1020.76
2023-03-01T08:54:58.022Z,1020.77
2023-03-01T08:55:58.023Z,1020.80
2023-03-01T08:56:58.005Z,1020.78
2023-03-01T08:57:57.994Z,1020.72
2023-03-01T08:58:58.013Z,1020.76
2023-03-01T08:59:57.983Z,1020.75
2023-03-01T09:00:57.965Z,1020.77
2023-03-01T09:01:57.995Z,1020.76
2023-03-01T09:02:57.943Z,1020.71
2023-03-01T09:03:58.005Z,1020.72
2023-03-01T09:04:57.915Z,1020.69
2023-03-01T09:05:57.926Z,1020.63
2023-03-01T09:06:57.894Z,1020.66
2023-03-01T09:07:57.928Z,1020.62
2023-03-01T09:08:57.910Z,1020.60
2023-03-01T09:09:57.877Z,1020.63
2023-03-01T09:10:57.870Z,1020.67
2023-03-01T09:11:57.854Z,1020.63
2023-03-01T09:12:57.839Z,1020.63
2023-03-01T09:13:57.887Z,1020.63
2023-03-01T09:14:57.815Z,1020.59
2023-03-01T09:15:57.809Z,1020.57
2023-03-01T09:16:57.847Z,1020.57
2023-03-01T09:17:57.832Z,1020.56
2023-03-01T09:18:57.778Z,1020.55
2023-03-01T09:19:57.782Z,1020.54
2023-03-01T09:20:57.756Z,1020.51
2023-03-01T09:21:57.749Z,1020.54
2023-03-01T09:22:57.751Z,1020.46
2023-03-01T09:23:57.748Z,1020.49
2023-03-01T09:24:57.716Z,1020.49
2023-03-01T09:25:57.748Z,1020.46
2023-03-01T09:26:57.714Z,1020.44
2023-03-01T09:27:57.677Z,1020.41
2023-03-01T09:28:57.687Z,1020.39
2023-03-01T09:29:57.683Z,1020.41
2023-03-01T09:30:58.492Z,1020.37
2023-03-01T09:31:57.713Z,1020.37
2023-03-01T09:32:57.642Z,1020.33
2023-03-01T09:33:57.630Z,1020.32
2023-03-01T09:34:57.598Z,1020.32
2023-03-01T09:35:57.608Z,1020.32
2023-03-01T09:36:57.582Z,1020.35
2023-03-01T09:37:57.578Z,1020.39
2023-03-01T09:38:57.589Z,1020.37
2023-03-01T09:39:57.590Z,1020.36
2023-03-01T09:40:57.664Z,1020.35
2023-03-01T09:41:57.540Z,1020.35
2023-03-01T09:42:57.518Z,1020.33
2023-03-01T09:43:57.520Z,1020.33
2023-03-01T09:44:57.499Z,1020.31
2023-03-01T09:45:57.499Z,1020.31
2023-03-01T09:46:57.500Z,1020.32
2023-03-01T09:47:57.472Z,1020.26
2023-03-01T09:48:57.491Z,1020.26
2023-03-01T09:49:57.460Z,1020.22
2023-03-01T09:50:57.432Z,1020.21
2023-03-01T09:51:57.453Z,1020.18
2023-03-01T09:52:57.410Z,1020.17
2023-03-01T09:53:57.458Z,1020.16
2023-03-01T09:54:59.643Z,1020.16
2023-03-01T09:55:57.382Z,1020.17
2023-03-01T09:56:57.377Z,1020.22
2023-03-01T09:57:57.424Z,1020.18
2023-03-01T09:58:57.381Z,1020.10
2023-03-01T09:59:57.342Z,1020.10
2023-03-01T10:00:57.325Z,1020.08
2023-03-01T10:01:57.349Z,1020.09
2023-03-01T10:02:57.352Z,1020.12
2023-03-01T10:03:57.361Z,1020.09
2023-03-01T10:04:57.334Z,1020.12
2023-03-01T10:05:57.273Z,1020.10
2023-03-01T10:06:57.254Z,1020.06
2023-03-01T10:07:57.257Z,1020.08
2023-03-01T10:08:57.265Z,1020.02
2023-03-01T10:09:57.236Z,1020.04
2023-03-01T10:10:57.232Z,1020.04
2023-03-01T10:11:57.206Z,1020.08
2023-03-01T10:12:57.203Z,1020.02
2023-03-01T10:13:57.199Z,1020.00
2023-03-01T10:14:57.178Z,1019.99
2023-03-01T10:15:57.308Z,1019.94
2023-03-01T10:16:57.162Z,1019.96
2023-03-01T10:17:57.148Z,1019.95
2023-03-01T10:18:57.139Z,1019.97
2023-03-01T10:19:57.185Z,1019.91
2023-03-01T10:20:57.119Z,1019.86
2023-03-01T10:21:57.099Z,1019.87
2023-03-01T10:22:57.102Z,1019.84
2023-03-01T10:23:57.107Z,1019.80
2023-03-01T10:24:57.070Z,1019.77
2023-03-01T10:25:57.063Z,1019.77
2023-03-01T10:26:57.042Z,1019.72
2023-03-01T10:27:57.037Z,1019.73
2023-03-01T10:28:57.063Z,1019.73
2023-03-01T10:29:57.012Z,1019.75
2023-03-01T10:30:57.016Z,1019.72
2023-03-01T10:31:57.015Z,1019.74
2023-03-01T10:32:57.007Z,1019.66
2023-03-01T10:33:56.968Z,1019.66
2023-03-01T10:34:56.954Z,1019.63
2023-03-01T10:35:56.988Z,1019.57
2023-03-01T10:36:56.940Z,1019.53
2023-03-01T10:37:56.926Z,1019.59
2023-03-01T10:38:56.924Z,1019.59
2023-03-01T10:39:56.900Z,1019.53
2023-03-01T10:40:56.886Z,1019.58
2023-03-01T10:41:56.885Z,1019.53
2023-03-01T10:42:56.857Z,1019.57
2023-03-01T10:43:56.870Z,1019.53
2023-03-01T10:44:56.840Z,1019.53
2023-03-01T10:45:56.863Z,1019.48
2023-03-01T10:46:56.819Z,1019.55
2023-03-01T10:47:56.810Z,1019.54
2023-03-01T10:48:56.814Z,1019.48
2023-03-01T10:49:56.792Z,1019.52
2023-03-01T10:50:56.802Z,1019.51
2023-03-01T10:51:56.775Z,1019.45
2023-03-01T10:52:56.754Z,1019.44
2023-03-01T10:53:56.770Z,1019.42
2023-03-01T10:54:56.735Z,1019.43
2023-03-01T10:55:56.733Z,1019.38
2023-03-01T10:56:56.714Z,1019.34
2023-03-01T10:57:56.721Z,1019.32
2023-03-01T10:58:56.704Z,1019.31
2023-03-01T10:59:56.685Z,1019.21
2023-03-01T11:00:56.670Z,1019.19
2023-03-01T11:01:56.732Z,1019.23
2023-03-01T11:02:56.647Z,1019.21
2023-03-01T11:03:56.656Z,1019.19
2023-03-01T11:04:56.686Z,1019.18
2023-03-01T11:05:56.628Z,1019.07
2023-03-01T11:06:56.602Z,1019.07
2023-03-01T11:07:56.600Z,1019.03
2023-03-01T11:08:56.598Z,1018.99
2023-03-01T11:09:56.580Z,1018.96
2023-03-01T11:10:56.561Z,1018.96
2023-03-01T11:11:56.569Z,1018.97
2023-03-01T11:12:56.540Z,1018.89
2023-03-01T11:13:56.568Z,1018.93
2023-03-01T11:14:56.541Z,1018.91
2023-03-01T11:15:56.532Z,1018.90
2023-03-01T11:16:56.495Z,1018.87
2023-03-01T11:18:03.117Z,1018.86
2023-03-01T11:18:57.486Z,1018.85
2023-03-01T11:20:02.538Z,1018.81
2023-03-01T11:20:57.449Z,1018.78
2023-03-01T11:21:56.491Z,1018.78
2023-03-01T11:22:56.439Z,1018.74
2023-03-01T11:23:56.461Z,1018.76
2023-03-01T11:25:08.875Z,1018.74
2023-03-01T11:25:57.398Z,1018.70
2023-03-01T11:26:56.396Z,1018.65
2023-03-01T11:27:56.404Z,1018.65
2023-03-01T11:28:56.571Z,1018.63
2023-03-01T11:29:56.374Z,1018.59
2023-03-01T11:31:07.662Z,1018.64
2023-03-01T11:31:58.114Z,1018.65
2023-03-01T11:32:56.426Z,1018.64
2023-03-01T11:33:56.350Z,1018.62
2023-03-01T11:34:56.313Z,1018.66
2023-03-01T11:35:56.347Z,1018.66
2023-03-01T11:36:56.325Z,1018.67
2023-03-01T11:37:56.287Z,1018.64
2023-03-01T11:38:56.571Z,1018.62
2023-03-01T11:39:56.254Z,1018.62
2023-03-01T11:40:56.279Z,1018.57
2023-03-01T11:41:58.135Z,1018.50
2023-03-01T11:42:56.238Z,1018.51
2023-03-01T11:43:56.261Z,1018.48
2023-03-01T11:44:56.222Z,1018.48
2023-03-01T11:45:56.186Z,1018.44
2023-03-01T11:46:56.330Z,1018.43
2023-03-01T11:47:56.175Z,1018.38
2023-03-01T11:48:56.160Z,1018.41
2023-03-01T11:49:56.140Z,1018.43
2023-03-01T11:50:56.144Z,1018.43
2023-03-01T11:51:56.116Z,1018.42
2023-03-01T11:52:56.119Z,1018.36
2023-03-01T11:53:56.139Z,1018.32
2023-03-01T11:54:56.093Z,1018.32
2023-03-01T11:55:56.148Z,1018.27
2023-03-01T11:56:56.122Z,1018.26
2023-03-01T11:57:56.063Z,1018.20
2023-03-01T11:58:56.175Z,1018.14
2023-03-01T11:59:56.037Z,1018.12
2023-03-01T12:00:56.033Z,1018.08
2023-03-01T12:01:56.073Z,1018.02
2023-03-01T12:02:56.017Z,1018.01
2023-03-01T12:03:56.067Z,1018.01
2023-03-01T12:04:55.989Z,1018.03